Time;durP1;ratioP1;P1;durP2;ratioP2;P2;SDS_P1;SDS_P2;PMS_P1;PMS_P2;Temp;Humidity;BMP_temperature;BMP_pressure;BME280_temperature;BME280_humidity;BME280_pressure;Samples;Min_cycle;Max_cycle;Signal;HPM_P1;HPM_P2
2021/07/13 00:00:22;;;;;;;2.70;2.50;;;18.90;99.90;;;;;;4888398;29;20415;-75
2021/07/13 00:02:48;;;;;;;7.05;3.28;;;18.80;99.90;;;;;;4867229;29;20422;-76
2021/07/13 00:05:15;;;;;;;3.10;2.90;;;18.80;99.90;;;;;;4890580;29;20507;-75
2021/07/13 00:07:41;;;;;;;2.85;2.65;;;18.70;99.90;;;;;;4888806;29;20418;-76
2021/07/13 00:10:08;;;;;;;2.30;2.20;;;18.70;99.90;;;;;;4888929;29;21044;-75
2021/07/13 00:12:34;;;;;;;2.33;2.15;;;18.70;99.90;;;;;;4874663;29;20543;-75
2021/07/13 00:15:00;;;;;;;2.83;2.63;;;18.70;99.90;;;;;;4876666;29;20422;-75
2021/07/13 00:17:25;;;;;;;2.30;2.10;;;18.60;99.90;;;;;;4883500;29;20390;-76
2021/07/13 00:19:51;;;;;;;2.67;2.47;;;18.60;99.90;;;;;;4862278;29;20905;-75
2021/07/13 00:22:17;;;;;;;2.70;2.50;;;18.60;99.90;;;;;;4879015;29;20407;-76
2021/07/13 00:24:43;;;;;;;3.05;2.75;;;18.60;99.90;;;;;;4905461;29;20461;-75
2021/07/13 00:27:08;;;;;;;2.50;2.30;;;18.60;99.90;;;;;;4886659;29;20784;-76
2021/07/13 00:29:34;;;;;;;2.97;2.78;;;18.50;99.90;;;;;;4876493;29;20410;-77
2021/07/13 00:32:00;;;;;;;2.23;2.13;;;18.50;99.90;;;;;;4892024;29;20441;-75
2021/07/13 00:34:26;;;;;;;2.10;2.00;;;18.50;99.90;;;;;;4862449;29;20450;-76
2021/07/13 00:36:51;;;;;;;2.22;2.13;;;18.50;99.90;;;;;;4876520;29;20510;-76
2021/07/13 00:39:17;;;;;;;7.00;2.67;;;18.50;99.90;;;;;;4873719;29;20427;-75
2021/07/13 00:41:43;;;;;;;4.15;2.70;;;18.40;99.90;;;;;;4880042;29;20410;-75
2021/07/13 00:44:08;;;;;;;3.67;2.40;;;18.30;99.90;;;;;;4902423;29;20940;-73
2021/07/13 00:46:46;;;;;;;3.30;3.00;;;18.30;99.90;;;;;;4876982;29;20999;-75
2021/07/13 00:49:15;;;;;;;2.63;2.43;;;18.30;99.90;;;;;;4883583;29;20411;-75
2021/07/13 00:51:41;;;;;;;2.60;2.40;;;18.20;99.90;;;;;;4892770;29;20879;-76
2021/07/13 00:54:08;;;;;;;3.55;2.53;;;18.20;99.90;;;;;;4894365;29;20454;-76
2021/07/13 00:56:37;;;;;;;4.20;3.00;;;18.10;99.90;;;;;;4865295;29;20420;-76
2021/07/13 00:59:03;;;;;;;5.80;2.80;;;18.10;99.90;;;;;;4903064;29;20430;-76
2021/07/13 01:01:28;;;;;;;3.47;3.17;;;18.10;99.90;;;;;;4875535;29;20403;-75
2021/07/13 01:03:54;;;;;;;3.15;2.85;;;18.00;99.90;;;;;;4897229;29;21007;-76
2021/07/13 01:06:20;;;;;;;2.55;2.35;;;18.00;99.90;;;;;;4875816;29;20419;-77
2021/07/13 01:09:05;;;;;;;2.80;2.60;;;18.00;99.90;;;;;;4886489;29;20529;-76
2021/07/13 01:11:47;;;;;;;2.60;2.40;;;18.00;99.90;;;;;;4859920;29;20977;-75
2021/07/13 01:14:22;;;;;;;2.57;2.37;;;18.00;99.90;;;;;;4879932;29;20429;-75
2021/07/13 01:16:54;;;;;;;3.40;3.10;;;17.90;99.90;;;;;;4879811;29;20425;-74
2021/07/13 01:19:35;;;;;;;2.78;2.58;;;17.90;99.90;;;;;;4874591;29;20407;-77
2021/07/13 01:22:18;;;;;;;3.20;2.70;;;17.90;99.90;;;;;;4881786;29;20399;-75
2021/07/13 01:25:03;;;;;;;3.40;3.10;;;17.80;99.90;;;;;;4862572;29;20418;-75
2021/07/13 01:27:48;;;;;;;3.10;2.80;;;17.80;99.90;;;;;;4881412;29;20490;-75
2021/07/13 01:30:34;;;;;;;5.20;3.20;;;17.70;99.90;;;;;;4890309;29;20441;-76
2021/07/13 01:33:27;;;;;;;3.25;2.80;;;17.70;99.90;;;;;;4892127;29;20474;-75
2021/07/13 01:36:04;;;;;;;2.42;2.22;;;17.60;99.90;;;;;;4852267;29;20407;-75
2021/07/13 01:38:32;;;;;;;2.30;2.10;;;17.60;99.90;;;;;;4876399;29;20395;-75
2021/07/13 01:41:00;;;;;;;3.00;2.80;;;17.60;99.90;;;;;;4873334;29;20409;-75
2021/07/13 01:43:26;;;;;;;2.57;2.37;;;17.70;99.90;;;;;;4868934;29;20490;-75
2021/07/13 01:45:51;;;;;;;3.08;2.88;;;17.60;99.90;;;;;;4893059;29;20411;-78
2021/07/13 01:48:17;;;;;;;3.00;2.80;;;17.50;99.90;;;;;;4875447;29;20394;-76
2021/07/13 01:50:49;;;;;;;3.35;2.72;;;17.50;99.90;;;;;;4875942;29;21110;-75
2021/07/13 01:53:14;;;;;;;3.75;2.70;;;17.50;99.90;;;;;;4893426;29;20950;-74
2021/07/13 01:55:40;;;;;;;4.03;2.93;;;17.40;99.90;;;;;;4884258;29;20401;-79
2021/07/13 01:58:06;;;;;;;3.20;2.90;;;17.40;99.90;;;;;;4882718;29;20408;-76
2021/07/13 02:00:34;;;;;;;3.00;2.80;;;17.40;99.90;;;;;;4858973;29;20411;-76
2021/07/13 02:03:01;;;;;;;4.78;3.03;;;17.40;99.90;;;;;;4882556;29;20424;-75
2021/07/13 02:05:27;;;;;;;2.53;2.40;;;17.40;99.90;;;;;;4882094;29;20415;-76
2021/07/13 02:07:53;;;;;;;6.63;3.40;;;17.40;99.90;;;;;;4890090;29;20419;-77
2021/07/13 02:10:19;;;;;;;2.60;2.40;;;17.40;99.90;;;;;;4860826;29;20531;-76
2021/07/13 02:12:45;;;;;;;2.75;2.55;;;17.40;99.90;;;;;;4883730;29;20947;-75
2021/07/13 02:15:11;;;;;;;2.90;2.63;;;17.30;99.90;;;;;;4875910;29;20805;-75
2021/07/13 02:17:36;;;;;;;2.90;2.70;;;17.40;99.90;;;;;;4883573;29;20488;-75
2021/07/13 02:20:06;;;;;;;6.25;2.63;;;17.40;99.90;;;;;;4894151;29;20388;-75
2021/07/13 02:22:31;;;;;;;3.22;2.92;;;17.40;99.90;;;;;;4887019;29;20406;-75
2021/07/13 02:24:57;;;;;;;2.88;2.67;;;17.40;99.90;;;;;;4876486;29;21049;-75
2021/07/13 02:27:23;;;;;;;3.00;2.80;;;17.30;99.90;;;;;;4859482;29;20868;-76
2021/07/13 02:29:59;;;;;;;2.28;2.10;;;17.20;99.90;;;;;;4895028;29;20413;-76
2021/07/13 02:32:28;;;;;;;5.78;5.28;;;17.10;99.90;;;;;;4885762;29;20417;-75
2021/07/13 02:34:54;;;;;;;3.20;3.00;;;17.10;99.90;;;;;;4896937;29;20417;-76
2021/07/13 02:37:20;;;;;;;3.33;2.35;;;17.10;99.90;;;;;;4875452;29;20415;-76
2021/07/13 02:39:46;;;;;;;2.95;2.75;;;17.10;99.90;;;;;;4869175;29;20417;-75
2021/07/13 02:42:12;;;;;;;3.17;2.58;;;17.00;99.90;;;;;;4875683;29;20415;-76
2021/07/13 02:44:38;;;;;;;3.00;2.70;;;17.00;99.90;;;;;;4881056;29;20395;-76
2021/07/13 02:47:08;;;;;;;3.08;2.60;;;17.00;99.90;;;;;;4874027;29;20434;-76
2021/07/13 02:49:35;;;;;;;3.15;2.85;;;16.90;99.90;;;;;;4886597;29;20471;-76
2021/07/13 02:52:00;;;;;;;2.80;2.60;;;16.90;99.90;;;;;;4890844;29;20494;-76
2021/07/13 02:54:27;;;;;;;2.67;2.47;;;16.90;99.90;;;;;;4866799;29;20399;-77
2021/07/13 02:56:53;;;;;;;3.70;3.40;;;17.00;99.90;;;;;;4893208;29;20438;-79
2021/07/13 02:59:20;;;;;;;3.38;3.08;;;17.00;99.90;;;;;;4892762;29;20418;-79
2021/07/13 03:01:46;;;;;;;4.15;3.10;;;16.90;99.90;;;;;;4893889;29;20508;-84
2021/07/13 03:04:12;;;;;;;2.97;2.78;;;16.90;99.90;;;;;;4895996;29;20426;-82
2021/07/13 03:06:41;;;;;;;3.37;3.07;;;16.90;99.90;;;;;;4886237;29;20407;-77
2021/07/13 03:09:06;;;;;;;3.65;3.35;;;16.90;99.90;;;;;;4890750;29;20407;-76
2021/07/13 03:11:33;;;;;;;3.05;2.85;;;16.80;99.90;;;;;;4874833;29;20430;-75
2021/07/13 03:14:01;;;;;;;3.10;2.80;;;16.80;99.90;;;;;;4874673;29;20817;-76
2021/07/13 03:16:26;;;;;;;3.50;3.20;;;16.80;99.90;;;;;;4859267;29;20462;-76
2021/07/13 03:18:52;;;;;;;3.17;2.87;;;16.70;99.90;;;;;;4873282;29;21796;-75
2021/07/13 03:21:22;;;;;;;3.50;3.20;;;16.80;99.90;;;;;;4909287;29;20411;-76
2021/07/13 03:23:48;;;;;;;2.97;2.77;;;16.70;99.90;;;;;;4891208;29;20418;-77
2021/07/13 03:26:14;;;;;;;3.22;2.92;;;16.70;99.90;;;;;;4845357;29;20399;-75
2021/07/13 03:28:39;;;;;;;2.67;2.47;;;16.80;99.90;;;;;;4889724;29;20586;-76
2021/07/13 03:31:06;;;;;;;3.45;3.15;;;16.70;99.90;;;;;;4880439;29;20942;-77
2021/07/13 03:33:32;;;;;;;3.10;2.90;;;16.70;99.90;;;;;;4876507;29;20953;-77
2021/07/13 03:35:57;;;;;;;3.00;2.80;;;16.80;99.90;;;;;;4890382;29;20417;-77
2021/07/13 03:38:23;;;;;;;6.07;3.38;;;16.80;99.90;;;;;;4875770;29;20891;-75
2021/07/13 03:40:49;;;;;;;3.58;3.13;;;16.80;99.90;;;;;;4874409;29;20405;-76
2021/07/13 03:43:15;;;;;;;4.30;3.47;;;16.90;99.90;;;;;;4859335;29;20410;-77
2021/07/13 03:45:41;;;;;;;3.30;3.00;;;17.00;99.90;;;;;;4893547;29;20399;-75
2021/07/13 03:48:09;;;;;;;3.50;3.20;;;17.00;99.90;;;;;;4890816;29;20956;-77
2021/07/13 03:50:35;;;;;;;4.68;3.13;;;17.10;99.90;;;;;;4884738;29;20455;-76
2021/07/13 03:53:01;;;;;;;3.50;3.20;;;17.10;99.90;;;;;;4861237;29;20478;-78
2021/07/13 03:55:26;;;;;;;3.40;3.10;;;17.20;99.90;;;;;;4878032;29;20401;-80
2021/07/13 03:57:54;;;;;;;3.60;3.30;;;17.30;99.90;;;;;;4881524;29;20450;-78
2021/07/13 04:00:21;;;;;;;3.58;3.28;;;17.30;99.90;;;;;;4862193;29;20411;-77
2021/07/13 04:02:46;;;;;;;3.70;3.40;;;17.30;99.90;;;;;;4893602;29;20411;-76
2021/07/13 04:05:13;;;;;;;3.60;3.30;;;17.40;99.90;;;;;;4864065;29;20407;-77
2021/07/13 04:07:38;;;;;;;3.60;3.30;;;17.50;99.90;;;;;;4893468;29;20463;-77
2021/07/13 04:10:05;;;;;;;3.67;3.37;;;17.50;99.90;;;;;;4878777;29;20753;-79
2021/07/13 04:12:31;;;;;;;3.30;3.08;;;17.60;99.90;;;;;;4880516;29;20934;-80
2021/07/13 04:14:56;;;;;;;4.07;3.67;;;17.60;99.90;;;;;;4879652;29;20494;-82
2021/07/13 04:17:22;;;;;;;3.40;3.10;;;17.70;99.90;;;;;;4873896;29;20418;-80
2021/07/13 04:19:48;;;;;;;3.10;2.90;;;17.80;99.90;;;;;;4895243;29;20884;-80
2021/07/13 04:22:14;;;;;;;3.92;3.63;;;17.90;99.90;;;;;;4897194;29;20415;-80
2021/07/13 04:24:39;;;;;;;3.87;3.57;;;17.90;99.90;;;;;;4880962;29;20398;-80
2021/07/13 04:27:05;;;;;;;3.90;3.43;;;18.00;99.90;;;;;;4868885;29;20474;-79
2021/07/13 04:29:31;;;;;;;3.85;3.55;;;18.00;99.90;;;;;;4879976;29;20414;-79
2021/07/13 04:31:56;;;;;;;3.10;2.90;;;18.00;99.90;;;;;;4883342;29;20414;-76
2021/07/13 04:34:22;;;;;;;3.17;2.88;;;18.20;99.90;;;;;;4877530;29;20398;-75
2021/07/13 04:36:48;;;;;;;3.80;3.23;;;18.30;99.90;;;;;;4878627;29;20407;-78
2021/07/13 04:39:13;;;;;;;3.42;3.17;;;18.30;99.90;;;;;;4893738;29;20411;-79
2021/07/13 04:41:39;;;;;;;4.70;4.23;;;18.40;99.90;;;;;;4880398;29;20539;-80
2021/07/13 04:44:05;;;;;;;4.32;3.92;;;18.50;99.90;;;;;;4882398;29;20407;-79
2021/07/13 04:46:31;;;;;;;4.72;3.60;;;18.60;99.90;;;;;;4865939;29;20414;-80
2021/07/13 04:48:56;;;;;;;4.40;4.00;;;18.60;99.90;;;;;;4883600;29;20403;-80
2021/07/13 04:51:23;;;;;;;5.32;3.50;;;18.80;99.90;;;;;;4862174;29;20403;-81
2021/07/13 04:53:49;;;;;;;6.38;3.72;;;18.90;99.90;;;;;;4864784;29;20414;-80
2021/07/13 04:56:14;;;;;;;4.50;4.10;;;18.90;99.90;;;;;;4864947;29;20407;-80
2021/07/13 04:58:40;;;;;;;4.05;3.72;;;19.00;99.90;;;;;;4879456;29;20395;-81
2021/07/13 05:01:05;;;;;;;3.50;3.20;;;19.10;99.90;;;;;;4878413;29;20407;-79
2021/07/13 05:03:31;;;;;;;3.83;3.53;;;19.20;99.90;;;;;;4887388;29;21078;-79
2021/07/13 05:05:57;;;;;;;3.63;3.33;;;19.30;99.90;;;;;;4864334;29;20411;-79
2021/07/13 05:08:23;;;;;;;4.00;3.70;;;19.40;99.90;;;;;;4886273;29;20407;-79
2021/07/13 05:10:49;;;;;;;3.85;3.55;;;19.50;99.90;;;;;;4872966;29;20423;-79
2021/07/13 05:13:15;;;;;;;4.00;3.70;;;19.60;99.90;;;;;;4873624;29;20801;-79
2021/07/13 05:15:41;;;;;;;3.58;3.30;;;19.80;99.90;;;;;;4880795;29;20508;-84
2021/07/13 05:18:09;;;;;;;3.85;3.50;;;19.90;99.90;;;;;;4884731;29;20447;-86
2021/07/13 05:20:36;;;;;;;3.65;3.35;;;20.00;99.90;;;;;;4891389;29;20426;-79
2021/07/13 05:23:06;;;;;;;3.70;3.40;;;20.00;99.90;;;;;;4895037;29;20483;-80
2021/07/13 05:25:36;;;;;;;4.05;3.75;;;20.10;99.90;;;;;;4897625;29;20411;-76
2021/07/13 05:28:02;;;;;;;4.53;4.13;;;20.20;99.90;;;;;;4872349;29;20458;-75
2021/07/13 05:30:28;;;;;;;4.75;4.25;;;20.20;99.90;;;;;;4890479;29;20427;-77
2021/07/13 05:32:54;;;;;;;4.30;3.93;;;20.20;99.90;;;;;;4865928;29;20471;-76
2021/07/13 05:35:20;;;;;;;4.32;3.92;;;20.30;99.90;;;;;;4879203;29;20418;-76
2021/07/13 05:37:47;;;;;;;4.38;3.97;;;20.40;99.90;;;;;;4864113;29;20407;-76
2021/07/13 05:40:13;;;;;;;3.95;3.63;;;20.60;99.90;;;;;;4866622;29;20399;-76
2021/07/13 05:42:39;;;;;;;4.90;4.40;;;20.70;99.90;;;;;;4885008;29;20471;-76
2021/07/13 05:45:06;;;;;;;3.93;3.53;;;20.70;99.90;;;;;;4872985;29;20415;-76
2021/07/13 05:47:31;;;;;;;3.47;3.17;;;20.80;99.90;;;;;;4862952;29;20483;-76
2021/07/13 05:49:57;;;;;;;8.45;3.90;;;21.00;99.90;;;;;;4862311;29;20407;-77
2021/07/13 05:52:23;;;;;;;4.53;3.57;;;21.20;99.90;;;;;;4888932;29;20857;-78
2021/07/13 05:54:48;;;;;;;3.90;3.60;;;21.30;99.90;;;;;;4885268;29;20404;-76
2021/07/13 05:57:14;;;;;;;4.43;4.03;;;21.50;99.90;;;;;;4878111;29;20415;-79
2021/07/13 05:59:40;;;;;;;4.30;3.90;;;21.60;99.90;;;;;;4878407;29;20407;-79
2021/07/13 06:02:07;;;;;;;4.88;4.38;;;21.70;99.90;;;;;;4883013;29;20516;-77
2021/07/13 06:04:32;;;;;;;5.40;4.10;;;21.80;99.90;;;;;;4884887;29;20499;-77
2021/07/13 06:06:58;;;;;;;3.40;3.15;;;21.90;99.90;;;;;;4882010;29;20928;-78
2021/07/13 06:09:27;;;;;;;3.80;3.50;;;22.10;99.90;;;;;;4856879;29;20812;-78
2021/07/13 06:11:54;;;;;;;3.35;3.05;;;22.30;99.90;;;;;;4877956;29;20423;-78
2021/07/13 06:14:19;;;;;;;4.20;3.13;;;22.40;99.90;;;;;;4879625;29;20410;-78
2021/07/13 06:16:45;;;;;;;3.27;3.00;;;22.50;99.90;;;;;;4861088;29;20414;-76
2021/07/13 06:19:11;;;;;;;2.88;2.67;;;22.70;99.90;;;;;;4897397;29;20472;-78
2021/07/13 06:21:36;;;;;;;3.20;2.90;;;22.70;99.90;;;;;;4880335;29;20414;-80
2021/07/13 06:24:03;;;;;;;2.87;2.67;;;22.90;99.90;;;;;;4879171;29;20942;-77
2021/07/13 06:26:28;;;;;;;2.60;2.40;;;23.10;99.90;;;;;;4863424;29;20498;-79
2021/07/13 06:28:54;;;;;;;2.65;2.45;;;23.30;99.90;;;;;;4877550;29;20470;-78
2021/07/13 06:31:20;;;;;;;2.80;2.60;;;23.30;99.90;;;;;;4870790;29;20418;-78
2021/07/13 06:33:45;;;;;;;2.60;2.40;;;23.40;99.90;;;;;;4879936;29;20405;-78
2021/07/13 06:36:11;;;;;;;2.70;2.50;;;23.50;99.90;;;;;;4875876;29;20414;-77
2021/07/13 06:38:37;;;;;;;2.72;2.20;;;23.60;99.90;;;;;;4862149;29;20402;-77
2021/07/13 06:41:02;;;;;;;2.67;2.47;;;23.70;99.90;;;;;;4879996;29;20403;-78
2021/07/13 06:43:28;;;;;;;2.50;2.30;;;23.90;99.90;;;;;;4868610;29;20501;-78
2021/07/13 06:45:54;;;;;;;2.38;2.20;;;24.00;99.90;;;;;;4890313;29;20395;-77
2021/07/13 06:48:20;;;;;;;2.60;2.40;;;24.10;99.90;;;;;;4884328;29;20418;-78
2021/07/13 06:50:45;;;;;;;11.98;2.67;;;24.20;99.90;;;;;;4905394;29;20432;-78
2021/07/13 06:53:11;;;;;;;3.03;2.20;;;24.50;99.90;;;;;;4901432;29;20418;-78
2021/07/13 06:55:37;;;;;;;2.35;2.05;;;24.60;99.90;;;;;;4897895;29;20402;-78
2021/07/13 06:58:03;;;;;;;3.83;2.33;;;24.70;99.90;;;;;;4879527;29;20480;-78
2021/07/13 07:00:28;;;;;;;2.17;1.97;;;24.70;99.90;;;;;;4861946;29;20407;-78
2021/07/13 07:02:55;;;;;;;2.28;2.17;;;24.80;99.90;;;;;;4878193;29;20408;-77
2021/07/13 07:05:21;;;;;;;2.00;1.90;;;24.90;99.90;;;;;;4884621;29;20431;-78
2021/07/13 07:07:48;;;;;;;2.90;2.20;;;25.00;99.90;;;;;;4875315;29;20423;-77
2021/07/13 07:10:15;;;;;;;2.00;1.90;;;25.20;99.90;;;;;;4892891;29;20417;-78
2021/07/13 07:12:41;;;;;;;2.25;2.13;;;25.50;99.90;;;;;;4877944;29;20943;-78
2021/07/13 07:15:07;;;;;;;3.08;2.38;;;25.60;99.90;;;;;;4878904;29;20402;-78
2021/07/13 07:17:43;;;;;;;2.47;2.15;;;25.70;99.90;;;;;;4891422;29;20399;-77
2021/07/13 07:20:09;;;;;;;2.53;1.92;;;26.00;99.90;;;;;;4881566;29;20439;-78
2021/07/13 07:22:35;;;;;;;2.42;2.22;;;26.00;99.90;;;;;;4883385;29;20938;-78
2021/07/13 07:25:01;;;;;;;2.40;2.20;;;26.20;99.90;;;;;;4881700;29;20403;-78
2021/07/13 07:27:27;;;;;;;3.10;2.37;;;26.20;99.90;;;;;;4884115;29;20395;-77
2021/07/13 07:29:53;;;;;;;2.85;2.38;;;26.20;99.90;;;;;;4879429;29;20539;-78
2021/07/13 07:32:18;;;;;;;2.33;2.13;;;26.30;99.90;;;;;;4880626;29;21367;-77
2021/07/13 07:34:44;;;;;;;2.50;2.30;;;26.40;99.90;;;;;;4878147;29;20427;-78
2021/07/13 07:37:10;;;;;;;2.63;2.43;;;26.50;99.90;;;;;;4876394;29;20419;-77
2021/07/13 07:39:37;;;;;;;2.20;2.10;;;26.60;99.90;;;;;;4878675;29;20418;-78
2021/07/13 07:42:03;;;;;;;2.10;2.00;;;26.70;99.90;;;;;;4877835;29;20403;-79
2021/07/13 07:44:29;;;;;;;3.10;2.00;;;26.90;99.90;;;;;;4890230;29;20794;-78
2021/07/13 07:46:55;;;;;;;4.15;2.58;;;27.00;99.90;;;;;;4876815;29;20443;-79
2021/07/13 07:49:20;;;;;;;2.30;2.10;;;27.20;99.90;;;;;;4876489;29;20472;-78
2021/07/13 07:51:46;;;;;;;2.30;2.10;;;27.30;99.90;;;;;;4880755;29;20506;-78
2021/07/13 07:54:12;;;;;;;3.75;2.58;;;27.50;99.90;;;;;;4880983;29;21016;-78
2021/07/13 07:56:37;;;;;;;2.60;2.40;;;27.70;99.90;;;;;;4876071;29;20403;-79
2021/07/13 07:59:04;;;;;;;2.90;2.50;;;27.70;99.90;;;;;;4861992;29;20434;-81
2021/07/13 08:01:30;;;;;;;2.40;2.20;;;27.80;99.90;;;;;;4889578;29;20414;-78
2021/07/13 08:03:57;;;;;;;2.50;2.30;;;28.10;99.90;;;;;;4867510;29;20426;-77
2021/07/13 08:06:22;;;;;;;2.38;2.17;;;28.20;99.90;;;;;;4867609;29;20406;-77
2021/07/13 08:08:48;;;;;;;2.80;2.60;;;28.20;99.90;;;;;;4876908;29;20410;-78
2021/07/13 08:11:14;;;;;;;2.13;2.03;;;28.30;99.90;;;;;;4859128;29;20547;-78
2021/07/13 08:13:40;;;;;;;2.85;2.65;;;28.50;99.90;;;;;;4862527;29;20503;-77
2021/07/13 08:16:05;;;;;;;3.80;2.80;;;28.80;99.90;;;;;;4875417;29;20414;-78
2021/07/13 08:18:31;;;;;;;3.00;2.80;;;28.90;99.90;;;;;;4875516;29;20411;-81
2021/07/13 08:20:59;;;;;;;2.80;2.60;;;29.00;99.90;;;;;;4876262;29;20434;-81
2021/07/13 08:23:24;;;;;;;3.72;2.85;;;29.00;99.90;;;;;;4876800;29;20865;-81
2021/07/13 08:25:50;;;;;;;3.35;3.05;;;29.00;99.90;;;;;;4882650;29;20406;-81
2021/07/13 08:28:16;;;;;;;3.07;2.77;;;29.00;99.90;;;;;;4894740;29;20401;-80
2021/07/13 08:30:42;;;;;;;2.80;2.60;;;29.10;99.90;;;;;;4892800;29;20429;-80
2021/07/13 08:33:07;;;;;;;2.70;2.50;;;29.30;99.90;;;;;;4910462;29;20928;-80
2021/07/13 08:35:33;;;;;;;2.42;2.22;;;29.50;99.90;;;;;;4911181;29;20453;-80
2021/07/13 08:37:58;;;;;;;2.75;2.55;;;29.70;99.90;;;;;;4911384;29;20390;-80
2021/07/13 08:40:26;;;;;;;2.63;2.43;;;29.90;99.90;;;;;;4911072;29;20905;-82
2021/07/13 08:42:54;;;;;;;6.00;2.80;;;30.10;99.90;;;;;;4906909;29;20408;-80
2021/07/13 08:45:19;;;;;;;2.70;2.50;;;30.00;99.90;;;;;;4889316;29;20405;-80
2021/07/13 08:47:48;;;;;;;2.20;2.03;;;30.10;99.90;;;;;;4907910;29;20778;-81
2021/07/13 08:50:15;;;;;;;3.17;2.45;;;30.30;99.90;;;;;;4880070;29;20418;-79
2021/07/13 08:52:41;;;;;;;2.20;1.98;;;30.50;99.90;;;;;;4878140;29;20486;-80
2021/07/13 08:55:08;;;;;;;2.85;2.65;;;30.70;99.90;;;;;;4871407;29;20405;-81
2021/07/13 08:57:36;;;;;;;2.87;2.67;;;31.00;99.90;;;;;;4897146;29;20767;-84
2021/07/13 09:00:02;;;;;;;2.70;2.50;;;31.00;99.90;;;;;;4896619;29;20409;-80
2021/07/13 09:02:28;;;;;;;2.40;2.20;;;30.90;99.90;;;;;;4911461;29;20413;-80
2021/07/13 09:04:54;;;;;;;2.67;2.47;;;30.90;99.90;;;;;;4889498;29;20455;-79
2021/07/13 09:07:19;;;;;;;2.88;2.67;;;30.90;99.90;;;;;;4895744;29;20404;-80
2021/07/13 09:09:48;;;;;;;2.88;2.40;;;31.00;99.90;;;;;;4913090;29;20505;-81
2021/07/13 09:12:21;;;;;;;2.90;2.70;;;31.10;99.90;;;;;;4903630;29;20556;-83
2021/07/13 09:15:00;;;;;;;2.47;2.28;;;31.40;99.90;;;;;;4856018;29;20451;-83
2021/07/13 09:17:30;;;;;;;2.45;2.15;;;31.70;99.90;;;;;;4876720;29;20422;-82
2021/07/13 09:20:13;;;;;;;2.78;2.58;;;32.20;99.90;;;;;;4877011;29;20403;-83
2021/07/13 09:22:54;;;;;;;2.90;2.70;;;31.90;99.90;;;;;;4865283;29;20407;-81
2021/07/13 09:25:25;;;;;;;2.85;2.65;;;31.80;99.90;;;;;;4891857;29;21019;-82
2021/07/13 09:28:22;;;;;;;3.25;2.30;;;31.80;99.90;;;;;;4902715;29;20430;-80
2021/07/13 09:30:49;;;;;;;2.33;2.13;;;32.10;99.90;;;;;;4877050;29;20465;-79
2021/07/13 09:33:16;;;;;;;2.75;2.55;;;32.10;99.90;;;;;;4867281;29;20453;-83
2021/07/13 09:36:00;;;;;;;2.67;2.47;;;32.30;99.90;;;;;;4893711;29;20753;-81
2021/07/13 09:38:26;;;;;;;2.90;2.25;;;32.40;99.90;;;;;;4877192;29;20430;-80
2021/07/13 09:41:09;;;;;;;4.40;2.50;;;32.70;99.90;;;;;;4876187;29;20410;-79
2021/07/13 09:43:41;;;;;;;2.40;2.30;;;33.00;99.90;;;;;;4884410;29;20492;-80
2021/07/13 09:46:32;;;;;;;2.40;2.20;;;33.20;99.90;;;;;;4890639;29;20403;-82
2021/07/13 09:49:20;;;;;;;2.88;2.40;;;33.30;99.90;;;;;;4893790;29;20421;-80
2021/07/13 09:51:58;;;;;;;2.83;2.63;;;33.30;99.90;;;;;;4894590;29;20474;-80
2021/07/13 09:54:40;;;;;;;2.65;2.45;;;33.00;99.90;;;;;;4893647;29;20440;-80
2021/07/13 09:57:16;;;;;;;2.42;2.22;;;32.80;99.90;;;;;;4878088;29;20415;-81
2021/07/13 09:59:47;;;;;;;2.30;2.10;;;32.80;99.90;;;;;;4877441;29;20413;-82
2021/07/13 10:02:15;;;;;;;2.60;2.40;;;32.90;99.90;;;;;;4875991;29;20499;-81
2021/07/13 10:04:40;;;;;;;2.70;2.28;;;32.60;99.90;;;;;;4861081;29;20419;-80
2021/07/13 10:07:10;;;;;;;2.50;2.30;;;32.30;99.90;;;;;;4861029;29;21167;-80
2021/07/13 10:09:36;;;;;;;3.73;2.57;;;32.20;99.90;;;;;;4892923;29;20430;-80
2021/07/13 10:12:07;;;;;;;2.33;2.13;;;32.00;99.90;;;;;;4861627;29;20788;-80
2021/07/13 10:14:32;;;;;;;2.17;2.08;;;32.10;99.90;;;;;;4861188;29;20776;-79
2021/07/13 10:16:59;;;;;;;2.50;2.30;;;32.10;99.90;;;;;;4859725;29;20407;-80
2021/07/13 10:19:25;;;;;;;2.53;2.33;;;31.90;99.90;;;;;;4868913;29;20463;-80
2021/07/13 10:21:51;;;;;;;2.60;2.40;;;31.80;99.90;;;;;;4876027;29;20407;-79
2021/07/13 10:24:21;;;;;;;2.50;2.30;;;32.10;99.90;;;;;;4890739;29;20435;-81
2021/07/13 10:26:48;;;;;;;2.80;2.60;;;32.40;99.90;;;;;;4876542;29;20411;-80
2021/07/13 10:29:32;;;;;;;2.70;2.50;;;32.30;99.90;;;;;;4875812;29;20415;-80
2021/07/13 10:32:01;;;;;;;2.47;2.08;;;32.30;99.90;;;;;;4876347;29;20418;-81
2021/07/13 10:34:46;;;;;;;2.67;2.47;;;32.60;99.90;;;;;;4876538;29;20407;-80
2021/07/13 10:37:37;;;;;;;2.00;1.90;;;32.80;99.90;;;;;;4879801;29;21111;-80
2021/07/13 10:40:13;;;;;;;2.17;2.08;;;33.00;99.90;;;;;;4893817;29;20455;-80
2021/07/13 10:42:42;;;;;;;2.25;2.05;;;33.10;99.90;;;;;;4863931;29;20470;-80
2021/07/13 10:45:15;;;;;;;2.23;2.13;;;32.60;99.90;;;;;;4891473;29;20810;-80
2021/07/13 10:48:00;;;;;;;2.17;2.08;;;32.80;99.90;;;;;;4890305;29;20411;-79
2021/07/13 10:50:25;;;;;;;4.10;2.22;;;32.60;99.30;;;;;;4876120;29;20413;-83
2021/07/13 10:52:56;;;;;;;2.80;2.60;;;32.80;99.90;;;;;;4875717;29;20402;-80
2021/07/13 10:55:31;;;;;;;1.80;1.70;;;32.90;99.90;;;;;;4878915;29;20938;-79
2021/07/13 10:58:13;;;;;;;2.35;2.15;;;33.20;99.90;;;;;;4879692;29;20461;-81
2021/07/13 11:00:47;;;;;;;2.17;1.83;;;33.20;98.90;;;;;;4893339;29;20513;-79
2021/07/13 11:03:31;;;;;;;2.10;2.00;;;33.10;99.40;;;;;;4884924;29;20419;-82
2021/07/13 11:05:59;;;;;;;2.03;1.92;;;33.70;99.90;;;;;;4890904;29;20407;-81
2021/07/13 11:08:50;;;;;;;3.25;2.35;;;34.20;99.60;;;;;;4879657;29;20399;-82
2021/07/13 11:11:22;;;;;;;2.28;2.13;;;34.20;99.00;;;;;;4892966;29;20437;-83
2021/07/13 11:13:51;;;;;;;2.28;2.08;;;34.30;98.00;;;;;;4894521;29;20434;-82
2021/07/13 11:16:21;;;;;;;2.30;2.20;;;34.00;97.10;;;;;;4875956;29;20874;-80
2021/07/13 11:18:47;;;;;;;2.38;2.17;;;34.00;98.20;;;;;;4883311;29;21307;-79
2021/07/13 11:21:17;;;;;;;2.00;1.90;;;34.10;98.60;;;;;;4877791;29;20713;-80
2021/07/13 11:23:43;;;;;;;2.72;2.08;;;34.30;97.70;;;;;;4888194;29;20412;-82
2021/07/13 11:26:10;;;;;;;2.25;2.05;;;34.30;97.50;;;;;;4880741;29;20408;-81
2021/07/13 11:28:37;;;;;;;2.30;2.10;;;34.80;96.70;;;;;;4887247;29;20419;-83
2021/07/13 11:31:03;;;;;;;10.30;2.15;;;34.90;96.60;;;;;;4886141;29;20873;-84
2021/07/13 11:33:29;;;;;;;2.08;1.95;;;35.30;95.90;;;;;;4900048;29;20405;-82
2021/07/13 11:36:00;;;;;;;2.00;1.90;;;35.70;95.30;;;;;;4892087;29;20399;-82
2021/07/13 11:38:27;;;;;;;2.00;1.90;;;35.90;95.10;;;;;;4880404;29;20411;-80
2021/07/13 11:41:12;;;;;;;2.28;2.17;;;36.40;94.70;;;;;;4870435;29;20436;-83
2021/07/13 11:43:38;;;;;;;2.00;1.90;;;36.70;92.50;;;;;;4875830;29;20421;-82
2021/07/13 11:46:13;;;;;;;2.37;2.17;;;36.50;92.30;;;;;;4880025;29;20486;-83
2021/07/13 11:48:39;;;;;;;2.40;2.20;;;36.60;91.80;;;;;;4880319;29;20453;-83
2021/07/13 11:51:04;;;;;;;3.10;2.20;;;36.50;91.00;;;;;;4893705;29;20925;-83
2021/07/13 11:53:31;;;;;;;2.15;2.00;;;36.00;88.50;;;;;;4904873;29;20401;-83
2021/07/13 11:56:01;;;;;;;2.00;1.90;;;35.70;91.50;;;;;;4869880;29;20444;-83
2021/07/13 11:58:30;;;;;;;2.20;2.10;;;35.60;91.50;;;;;;4879497;29;20569;-83
2021/07/13 12:01:15;;;;;;;4.47;2.25;;;35.80;91.10;;;;;;4878155;29;20414;-85
2021/07/13 12:03:41;;;;;;;2.15;2.05;;;36.30;91.50;;;;;;4899030;29;20433;-84
2021/07/13 12:06:11;;;;;;;2.40;2.00;;;36.40;88.90;;;;;;4882282;29;20402;-84
2021/07/13 12:08:37;;;;;;;2.33;2.13;;;36.60;90.60;;;;;;4865422;29;20410;-83
2021/07/13 12:11:04;;;;;;;2.00;1.90;;;37.00;87.80;;;;;;4877727;29;20422;-81
2021/07/13 12:13:29;;;;;;;1.73;1.63;;;37.20;90.00;;;;;;4882033;29;20435;-83
2021/07/13 12:16:14;;;;;;;2.10;1.90;;;37.40;85.70;;;;;;4878696;29;20829;-83
2021/07/13 12:18:40;;;;;;;2.00;1.90;;;37.50;84.20;;;;;;4884368;29;20393;-84
2021/07/13 12:21:06;;;;;;;1.77;1.67;;;37.40;78.30;;;;;;4880155;29;20409;-84
2021/07/13 12:23:31;;;;;;;1.88;1.77;;;37.50;77.00;;;;;;4868495;29;20407;-84
2021/07/13 12:26:21;;;;;;;2.90;2.00;;;37.80;84.70;;;;;;4889428;29;21604;-83
2021/07/13 12:29:03;;;;;;;2.07;1.87;;;38.10;84.30;;;;;;4899335;29;20426;-81
2021/07/13 12:31:30;;;;;;;1.55;1.45;;;38.30;80.50;;;;;;4897007;29;20446;-80
2021/07/13 12:33:56;;;;;;;1.90;1.80;;;38.60;78.30;;;;;;4901913;29;20403;-87
2021/07/13 12:36:28;;;;;;;1.90;1.80;;;38.50;74.80;;;;;;4898352;29;20413;-86
2021/07/13 12:38:54;;;;;;;1.53;1.50;;;38.30;80.40;;;;;;4868111;29;20485;-82
2021/07/13 12:41:21;;;;;;;1.90;1.70;;;38.10;75.40;;;;;;4884961;29;20419;-84
2021/07/13 12:43:47;;;;;;;3.00;1.92;;;38.00;74.40;;;;;;4898853;29;20419;-82
2021/07/13 12:46:31;;;;;;;2.72;2.03;;;38.10;74.90;;;;;;4896485;29;20525;-81
2021/07/13 12:48:57;;;;;;;1.83;1.73;;;38.30;73.10;;;;;;4893095;29;20413;-83
2021/07/13 12:51:27;;;;;;;2.07;1.97;;;38.50;77.10;;;;;;4876223;29;20432;-83
2021/07/13 12:54:06;;;;;;;2.00;1.90;;;38.10;74.40;;;;;;4900133;29;20424;-82